createdAt,value
2022-12-03T00:01:06.808Z,99533.12
2022-12-03T00:03:36.987Z,99535.20
2022-12-03T00:06:05.860Z,99536.89
2022-12-03T00:08:35.541Z,99534.16
2022-12-03T00:11:04.334Z,99531.73
2022-12-03T00:13:32.819Z,99530.34
2022-12-03T00:16:02.097Z,99526.03
2022-12-03T00:18:31.453Z,99524.59
2022-12-03T00:21:00.094Z,99524.59
2022-12-03T00:23:28.851Z,99529.05
2022-12-03T00:25:57.933Z,99529.30
2022-12-03T00:28:26.593Z,99525.21
2022-12-03T00:30:56.215Z,99523.51
2022-12-03T00:33:26.137Z,99529.66
2022-12-03T00:35:54.697Z,99529.83
2022-12-03T00:38:23.857Z,99527.75
2022-12-03T00:40:54.198Z,99526.78
2022-12-03T00:43:22.633Z,99526.04
2022-12-03T00:45:51.672Z,99528.85
2022-12-03T00:48:20.535Z,99528.01
2022-12-03T00:50:49.099Z,99527.77
2022-12-03T00:53:17.973Z,99529.77
2022-12-03T00:55:47.352Z,99523.52
2022-12-03T00:58:15.956Z,99520.36
2022-12-03T01:00:45.040Z,99522.38
2022-12-03T01:03:14.167Z,99524.89
2022-12-03T01:05:42.865Z,99524.00
2022-12-03T01:08:12.135Z,99523.29
2022-12-03T01:10:42.142Z,99523.51
2022-12-03T01:13:10.886Z,99522.30
2022-12-03T01:15:39.790Z,99517.00
2022-12-03T01:18:09.831Z,99518.91
2022-12-03T01:20:39.043Z,99521.52
2022-12-03T01:23:08.388Z,99520.48
2022-12-03T01:25:37.490Z,99524.23
2022-12-03T01:28:05.975Z,99526.08
2022-12-03T01:30:55.189Z,99524.25
2022-12-03T01:33:24.124Z,99521.66
2022-12-03T01:35:53.072Z,99518.89
2022-12-03T01:38:21.835Z,99516.46
2022-12-03T01:40:51.105Z,99520.33
2022-12-03T01:43:19.771Z,99518.77
2022-12-03T01:45:48.871Z,99511.93
2022-12-03T01:48:18.048Z,99512.44
2022-12-03T01:50:47.658Z,99513.15
2022-12-03T01:53:19.541Z,99515.11
2022-12-03T01:55:48.976Z,99512.26
2022-12-03T01:58:24.864Z,99511.05
2022-12-03T02:00:53.756Z,99514.73
2022-12-03T02:03:25.244Z,99517.65
2022-12-03T02:05:54.202Z,99513.23
2022-12-03T02:08:35.445Z,99506.84
2022-12-03T02:11:26.291Z,99501.54
2022-12-03T02:14:02.178Z,99499.09
2022-12-03T02:16:31.543Z,99499.52
2022-12-03T02:19:01.174Z,99498.66
2022-12-03T02:21:54.016Z,99500.17
2022-12-03T02:24:44.438Z,99498.89
2022-12-03T02:27:13.465Z,99505.57
2022-12-03T02:29:42.647Z,99505.04
2022-12-03T02:32:11.586Z,99509.13
2022-12-03T02:34:45.958Z,99506.83
2022-12-03T02:37:19.987Z,99509.42
2022-12-03T02:39:53.628Z,99506.38
2022-12-03T02:42:38.311Z,99504.88
2022-12-03T02:45:10.660Z,99502.09
2022-12-03T02:47:44.805Z,99501.85
2022-12-03T02:50:18.279Z,99503.46
2022-12-03T02:52:48.418Z,99503.25
2022-12-03T02:55:18.878Z,99497.27
2022-12-03T02:57:50.524Z,99496.46
2022-12-03T03:00:19.793Z,99491.32
2022-12-03T03:02:51.188Z,99491.88
2022-12-03T03:05:23.938Z,99495.39
2022-12-03T03:07:53.144Z,99495.76
2022-12-03T03:10:23.748Z,99492.58
2022-12-03T03:12:55.589Z,99492.58
2022-12-03T03:15:25.558Z,99490.14
2022-12-03T03:17:54.172Z,99488.29
2022-12-03T03:20:23.054Z,99486.08
2022-12-03T03:22:52.066Z,99490.34
2022-12-03T03:25:25.391Z,99491.60
2022-12-03T03:27:54.482Z,99491.97
2022-12-03T03:30:23.302Z,99494.60
2022-12-03T03:32:51.987Z,99490.20
2022-12-03T03:35:21.146Z,99487.48
2022-12-03T03:37:49.897Z,99487.23
2022-12-03T03:40:19.042Z,99481.39
2022-12-03T03:42:48.887Z,99478.86
2022-12-03T03:45:22.662Z,99478.98
2022-12-03T03:47:55.559Z,99480.20
2022-12-03T03:50:28.713Z,99474.12
2022-12-03T03:53:00.346Z,99476.92
2022-12-03T03:55:30.424Z,99475.04
2022-12-03T03:57:59.400Z,99471.27
2022-12-03T04:00:28.443Z,99468.79
2022-12-03T04:02:57.213Z,99466.42
2022-12-03T04:05:28.005Z,99470.64
2022-12-03T04:07:57.040Z,99466.96
2022-12-03T04:10:44.288Z,99466.24
2022-12-03T04:13:14.463Z,99462.40
2022-12-03T04:15:43.122Z,99458.63
2022-12-03T04:18:30.508Z,99457.27
2022-12-03T04:21:19.240Z,99457.95
2022-12-03T04:23:47.927Z,99456.14
2022-12-03T04:26:36.049Z,99459.73
2022-12-03T04:29:04.960Z,99461.14
2022-12-03T04:31:52.611Z,99459.45
2022-12-03T04:34:40.029Z,99460.48
2022-12-03T04:37:09.284Z,99461.68
2022-12-03T04:39:37.943Z,99460.48
2022-12-03T04:42:07.511Z,99461.80
2022-12-03T04:44:36.726Z,99463.27
2022-12-03T04:47:08.987Z,99459.47
2022-12-03T04:49:41.205Z,99459.25
2022-12-03T04:52:12.294Z,99463.23
2022-12-03T04:54:42.125Z,99464.48
2022-12-03T04:57:12.234Z,99467.23
2022-12-03T04:59:41.433Z,99467.89
2022-12-03T05:02:10.622Z,99465.65
2022-12-03T05:04:39.661Z,99461.67
2022-12-03T05:07:08.350Z,99465.61
2022-12-03T05:09:37.446Z,99462.31
2022-12-03T05:12:06.210Z,99459.46
2022-12-03T05:14:35.605Z,99463.39
2022-12-03T05:17:04.690Z,99461.47
2022-12-03T05:19:52.192Z,99462.54
2022-12-03T05:22:21.047Z,99463.67
2022-12-03T05:24:49.644Z,99459.21
2022-12-03T05:27:23.451Z,99462.86
2022-12-03T05:29:54.446Z,99460.34
2022-12-03T05:32:23.158Z,99459.15
2022-12-03T05:34:52.023Z,99461.55
2022-12-03T05:37:21.824Z,99459.90
2022-12-03T05:39:50.556Z,99461.19
2022-12-03T05:42:37.845Z,99459.78
2022-12-03T05:45:07.665Z,99458.13
2022-12-03T05:47:36.262Z,99458.95
2022-12-03T05:50:05.525Z,99457.09
2022-12-03T05:52:34.738Z,99459.65
2022-12-03T05:55:03.686Z,99453.96
2022-12-03T05:57:32.267Z,99449.39
2022-12-03T06:00:01.424Z,99451.77
2022-12-03T06:02:30.339Z,99452.61
2022-12-03T06:04:59.370Z,99448.68
2022-12-03T06:07:28.544Z,99445.94
2022-12-03T06:09:57.141Z,99448.29
2022-12-03T06:12:25.700Z,99446.40
2022-12-03T06:14:55.662Z,99445.27
2022-12-03T06:17:24.477Z,99448.69
2022-12-03T06:19:53.067Z,99457.35
2022-12-03T06:22:22.134Z,99460.13
2022-12-03T06:24:50.915Z,99457.81
2022-12-03T06:27:19.693Z,99459.38
2022-12-03T06:29:49.051Z,99457.20
2022-12-03T06:32:17.696Z,99456.02
2022-12-03T06:34:47.491Z,99455.83
2022-12-03T06:37:16.853Z,99453.39
2022-12-03T06:39:45.593Z,99455.48
2022-12-03T06:42:14.136Z,99458.92
2022-12-03T06:44:43.246Z,99457.79
2022-12-03T06:47:11.842Z,99464.15
2022-12-03T06:49:40.487Z,99462.27
2022-12-03T06:52:09.600Z,99463.69
2022-12-03T06:54:38.179Z,99457.96
2022-12-03T06:57:06.893Z,99459.34
2022-12-03T06:59:37.982Z,99459.50
2022-12-03T07:02:07.008Z,99456.95
2022-12-03T07:04:35.651Z,99458.28
2022-12-03T07:07:05.025Z,99456.23
2022-12-03T07:09:33.580Z,99455.41
2022-12-03T07:12:02.199Z,99451.61
2022-12-03T07:14:31.390Z,99450.26
2022-12-03T07:17:00.028Z,99448.97
2022-12-03T07:19:32.522Z,99448.96
2022-12-03T07:22:03.699Z,99452.31
2022-12-03T07:30:18.132Z,99448.92
2022-12-03T07:48:29.698Z,99449.17
2022-12-03T07:51:01.203Z,99444.64
2022-12-03T07:53:30.472Z,99446.86
2022-12-03T07:55:59.071Z,99436.85
2022-12-03T07:58:28.291Z,99436.95
2022-12-03T08:00:57.855Z,99437.23
2022-12-03T08:03:26.535Z,99431.73
2022-12-03T08:05:55.594Z,99433.38
2022-12-03T08:08:24.815Z,99433.23
2022-12-03T08:10:53.647Z,99433.02
2022-12-03T08:13:22.456Z,99427.17
2022-12-03T08:15:52.359Z,99424.95
2022-12-03T08:18:22.412Z,99423.01
2022-12-03T08:20:52.304Z,99424.37
2022-12-03T08:23:23.322Z,99427.16
2022-12-03T08:25:53.352Z,99421.61
2022-12-03T08:28:24.652Z,99416.94
2022-12-03T08:31:19.928Z,99417.86
2022-12-03T08:33:51.369Z,99414.46
2022-12-03T08:36:27.167Z,99414.86
2022-12-03T08:39:15.159Z,99413.35
2022-12-03T08:42:05.945Z,99413.80
2022-12-03T08:44:41.989Z,99416.33
2022-12-03T08:47:16.869Z,99418.19
2022-12-03T08:50:13.115Z,99424.02
2022-12-03T08:52:42.461Z,99423.91
2022-12-03T08:55:39.266Z,99422.31
2022-12-03T08:58:39.855Z,99427.41
2022-12-03T09:01:11.723Z,99425.98
2022-12-03T09:03:49.565Z,99432.45
2022-12-03T09:06:18.896Z,99434.84
2022-12-03T09:08:48.098Z,99435.45
2022-12-03T09:11:16.767Z,99432.47
2022-12-03T09:13:45.409Z,99432.27
2022-12-03T09:16:14.423Z,99425.69
2022-12-03T09:18:46.493Z,99433.55
2022-12-03T09:21:16.486Z,99428.62
2022-12-03T09:23:45.020Z,99428.29
2022-12-03T09:26:14.243Z,99428.77
2022-12-03T09:28:43.174Z,99425.35
2022-12-03T09:31:12.036Z,99421.48
2022-12-03T09:33:40.728Z,99423.10
2022-12-03T09:36:09.655Z,99426.01
2022-12-03T09:38:41.945Z,99418.55
2022-12-03T09:41:15.194Z,99419.98
2022-12-03T09:44:03.306Z,99418.55
2022-12-03T09:46:35.958Z,99428.75
2022-12-03T09:49:12.314Z,99423.59
2022-12-03T09:51:45.948Z,99413.50
2022-12-03T09:54:24.790Z,99413.31
2022-12-03T09:56:55.384Z,99411.84
2022-12-03T09:59:28.218Z,99409.96
2022-12-03T10:01:58.202Z,99408.84
2022-12-03T10:04:29.158Z,99413.55
2022-12-03T10:06:59.339Z,99408.70
2022-12-03T10:09:29.691Z,99411.02
2022-12-03T10:12:00.365Z,99414.89
2022-12-03T10:14:30.038Z,99416.45
2022-12-03T10:16:59.003Z,99415.33
2022-12-03T10:19:33.243Z,99418.77
2022-12-03T10:22:02.110Z,99415.63
2022-12-03T10:24:35.995Z,99415.21
2022-12-03T10:27:29.758Z,99413.77
2022-12-03T10:30:01.668Z,99405.75
2022-12-03T10:32:45.999Z,99403.17
2022-12-03T10:35:21.551Z,99402.58
2022-12-03T10:38:01.022Z,99394.08
2022-12-03T10:40:31.607Z,99390.91
2022-12-03T10:43:18.981Z,99384.24
2022-12-03T10:45:50.076Z,99381.39
2022-12-03T10:48:20.442Z,99380.52
2022-12-03T10:50:55.548Z,99380.54
2022-12-03T10:53:28.787Z,99386.23
2022-12-03T10:56:00.174Z,99387.80
2022-12-03T10:58:31.617Z,99388.45
2022-12-03T11:01:03.995Z,99389.30
2022-12-03T11:03:37.026Z,99388.68
2022-12-03T11:06:06.125Z,99389.59
2022-12-03T11:08:37.739Z,99389.71
2022-12-03T11:11:19.211Z,99383.73
2022-12-03T11:13:54.857Z,99379.20
2022-12-03T11:16:42.237Z,99375.64
2022-12-03T11:19:38.134Z,99376.11
2022-12-03T11:22:07.020Z,99376.89
2022-12-03T11:24:41.618Z,99370.95
2022-12-03T11:27:10.773Z,99375.20
2022-12-03T11:30:00.392Z,99371.62
2022-12-03T11:32:38.828Z,99363.59
2022-12-03T11:35:29.101Z,99365.14
2022-12-03T11:38:36.502Z,99363.64
2022-12-03T11:41:11.744Z,99363.55
2022-12-03T11:43:52.872Z,99365.17
2022-12-03T11:46:25.492Z,99366.69
2022-12-03T11:48:56.866Z,99367.60
2022-12-03T11:51:28.829Z,99367.71
2022-12-03T11:54:01.025Z,99370.34
2022-12-03T11:56:33.453Z,99369.70
2022-12-03T11:59:05.084Z,99373.02
2022-12-03T12:01:44.186Z,99368.42
2022-12-03T12:04:35.911Z,99364.94
2022-12-03T12:07:04.834Z,99362.86
2022-12-03T12:10:06.151Z,99358.42
2022-12-03T12:12:54.289Z,99355.93
2022-12-03T12:15:34.015Z,99343.94
2022-12-03T12:18:41.879Z,99337.22
2022-12-03T12:21:48.029Z,99336.20
2022-12-03T12:24:51.805Z,99334.54
2022-12-03T12:27:23.556Z,99334.20
2022-12-03T12:30:03.469Z,99336.63
2022-12-03T12:33:10.436Z,99328.04
2022-12-03T12:35:46.766Z,99332.71
2022-12-03T12:38:35.903Z,99332.52
2022-12-03T12:41:08.401Z,99337.33
2022-12-03T12:43:39.143Z,99329.59
2022-12-03T12:49:15.273Z,99333.70
2022-12-03T12:51:46.096Z,99322.86
2022-12-03T12:54:17.000Z,99317.70
2022-12-03T12:56:50.415Z,99320.55
2022-12-03T12:59:24.819Z,99320.25
2022-12-03T13:01:54.042Z,99315.81
2022-12-03T13:04:24.235Z,99312.47
2022-12-03T13:06:54.366Z,99312.59
2022-12-03T13:09:28.075Z,99323.54
2022-12-03T13:12:00.395Z,99319.00
2022-12-03T13:14:36.956Z,99316.23
2022-12-03T13:17:19.145Z,99320.19
2022-12-03T13:19:53.912Z,99322.20
2022-12-03T13:22:28.227Z,99321.91
2022-12-03T13:24:59.034Z,99326.66
2022-12-03T13:27:30.028Z,99335.16
2022-12-03T13:30:08.741Z,99335.46
2022-12-03T13:32:38.102Z,99331.20
2022-12-03T13:35:17.773Z,99322.77
2022-12-03T13:37:46.740Z,99322.13
2022-12-03T13:40:26.077Z,99315.82
2022-12-03T13:42:55.570Z,99313.63
2022-12-03T13:45:31.296Z,99313.70
2022-12-03T13:48:03.667Z,99321.09
2022-12-03T13:50:46.611Z,99326.52
2022-12-03T13:53:40.477Z,99323.09
2022-12-03T13:56:30.576Z,99326.94
2022-12-03T13:59:00.604Z,99322.00
2022-12-03T14:01:30.960Z,99312.94
2022-12-03T14:04:00.944Z,99308.05
2022-12-03T14:06:29.439Z,99301.56
2022-12-03T14:08:58.364Z,99307.29
2022-12-03T14:11:48.691Z,99307.64
2022-12-03T14:14:19.499Z,99311.53
2022-12-03T14:16:48.688Z,99309.73
2022-12-03T14:19:17.265Z,99309.27
2022-12-03T14:21:47.024Z,99299.70
2022-12-03T14:24:16.131Z,99295.27
2022-12-03T14:26:44.670Z,99311.34
2022-12-03T14:29:13.530Z,99316.91
2022-12-03T14:31:42.331Z,99315.34
2022-12-03T14:34:10.985Z,99308.17
2022-12-03T14:36:40.770Z,99304.98
2022-12-03T14:39:09.556Z,99304.27
2022-12-03T14:41:56.905Z,99305.14
2022-12-03T14:44:26.685Z,99302.80
2022-12-03T14:46:57.340Z,99306.56
2022-12-03T14:49:27.018Z,99306.17
2022-12-03T14:51:55.672Z,99303.76
2022-12-03T14:54:24.288Z,99301.79
2022-12-03T14:56:53.727Z,99306.52
2022-12-03T14:59:27.386Z,99318.65
2022-12-03T15:01:57.912Z,99319.73
2022-12-03T15:04:26.921Z,99316.78
2022-12-03T15:06:55.502Z,99315.70
2022-12-03T15:09:24.643Z,99311.13
2022-12-03T15:11:53.303Z,99318.38
2022-12-03T15:14:23.835Z,99316.33
2022-12-03T15:16:53.930Z,99322.02
2022-12-03T15:19:22.764Z,99319.89
2022-12-03T15:21:51.299Z,99310.85
2022-12-03T15:24:20.561Z,99317.24
2022-12-03T15:26:49.984Z,99319.11
2022-12-03T15:29:19.326Z,99321.96
2022-12-03T15:31:48.813Z,99314.33
2022-12-03T15:34:22.574Z,99315.38
2022-12-03T15:36:52.398Z,99319.09
2022-12-03T15:39:21.028Z,99306.89
2022-12-03T15:41:49.835Z,99305.07
2022-12-03T15:44:19.170Z,99302.82
2022-12-03T15:46:48.063Z,99304.23
2022-12-03T15:49:16.660Z,99302.23
2022-12-03T15:51:45.842Z,99305.92
2022-12-03T15:54:14.907Z,99303.35
2022-12-03T15:56:43.413Z,99304.90
2022-12-03T15:59:13.691Z,99303.01
2022-12-03T16:01:42.271Z,99306.17
2022-12-03T16:04:10.965Z,99304.80
2022-12-03T16:06:40.278Z,99305.67
2022-12-03T16:09:09.279Z,99301.06
2022-12-03T16:11:37.879Z,99300.16
2022-12-03T16:14:07.298Z,99306.75
2022-12-03T16:16:36.502Z,99304.05
2022-12-03T16:19:05.185Z,99302.04
2022-12-03T16:21:35.640Z,99304.08
2022-12-03T16:24:05.236Z,99300.95
2022-12-03T16:26:33.883Z,99300.33
2022-12-03T16:29:03.927Z,99302.66
2022-12-03T16:31:33.846Z,99300.57
2022-12-03T16:34:02.650Z,99298.80
2022-12-03T16:36:32.253Z,99300.38
2022-12-03T16:39:01.507Z,99299.61
2022-12-03T16:41:30.288Z,99295.10
2022-12-03T16:44:02.508Z,99293.92
2022-12-03T16:46:31.468Z,99292.80
2022-12-03T16:49:00.638Z,99289.66
2022-12-03T16:51:30.749Z,99291.87
2022-12-03T16:53:59.774Z,99291.23
2022-12-03T16:56:28.507Z,99289.76
2022-12-03T16:58:57.486Z,99288.71
2022-12-03T17:01:26.187Z,99284.19
2022-12-03T17:03:55.533Z,99280.02
2022-12-03T17:06:24.657Z,99284.40
2022-12-03T17:08:53.290Z,99286.20
2022-12-03T17:11:22.042Z,99288.64
2022-12-03T17:13:51.467Z,99287.19
2022-12-03T17:16:20.210Z,99287.63
2022-12-03T17:18:49.875Z,99284.20
2022-12-03T17:21:19.645Z,99284.18
2022-12-03T17:23:51.213Z,99280.04
2022-12-03T17:26:20.578Z,99281.14
2022-12-03T17:28:49.099Z,99278.42
2022-12-03T17:31:17.713Z,99274.68
2022-12-03T17:33:47.131Z,99269.70
2022-12-03T17:36:15.718Z,99267.98
2022-12-03T17:38:44.329Z,99262.70
2022-12-03T17:41:13.931Z,99261.91
2022-12-03T17:43:42.603Z,99264.21
2022-12-03T17:46:11.905Z,99263.33
2022-12-03T17:48:43.214Z,99265.35
2022-12-03T17:51:12.053Z,99266.85
2022-12-03T17:53:40.718Z,99271.36
2022-12-03T17:56:10.177Z,99273.98
2022-12-03T17:58:38.920Z,99271.75
2022-12-03T18:01:10.928Z,99274.88
2022-12-03T18:03:51.404Z,99276.48
2022-12-03T18:06:41.886Z,99273.20
2022-12-03T18:09:37.054Z,99269.55
2022-12-03T18:12:36.289Z,99260.33
2022-12-03T18:15:27.880Z,99260.23
2022-12-03T18:18:30.592Z,99257.59
2022-12-03T18:21:21.766Z,99257.20
2022-12-03T18:24:26.009Z,99257.73
2022-12-03T18:27:12.799Z,99258.89
2022-12-03T18:30:05.825Z,99259.71
2022-12-03T18:32:53.225Z,99256.44
2022-12-03T18:35:53.984Z,99255.38
2022-12-03T18:38:51.176Z,99257.19
2022-12-03T18:41:46.858Z,99256.42
2022-12-03T18:44:15.884Z,99251.66
2022-12-03T18:46:53.518Z,99248.15
2022-12-03T18:49:23.666Z,99253.70
2022-12-03T18:51:58.872Z,99251.63
2022-12-03T18:54:28.637Z,99256.15
2022-12-03T18:56:57.592Z,99253.98
2022-12-03T18:59:26.184Z,99248.91
2022-12-03T19:01:55.104Z,99250.90
2022-12-03T19:04:24.736Z,99253.84
2022-12-03T19:06:53.358Z,99254.46
2022-12-03T19:09:22.375Z,99256.59
2022-12-03T19:11:51.524Z,99253.73
2022-12-03T19:14:20.068Z,99254.27
2022-12-03T19:16:50.592Z,99253.48
2022-12-03T19:19:19.555Z,99253.97
2022-12-03T19:21:48.145Z,99250.17
2022-12-03T19:24:26.553Z,99252.27
2022-12-03T19:26:55.797Z,99251.13
2022-12-03T19:29:25.284Z,99247.52
2022-12-03T19:31:53.962Z,99251.02
2022-12-03T19:34:22.778Z,99253.96
2022-12-03T19:36:51.868Z,99254.91
2022-12-03T19:39:20.653Z,99254.34
2022-12-03T19:41:49.508Z,99249.16
2022-12-03T19:44:19.734Z,99253.63
2022-12-03T19:46:51.526Z,99256.82
2022-12-03T19:49:21.962Z,99255.64
2022-12-03T19:51:50.877Z,99250.75
2022-12-03T19:54:19.841Z,99252.73
2022-12-03T19:56:50.163Z,99256.82
2022-12-03T19:59:19.140Z,99258.37
2022-12-03T20:01:48.681Z,99259.29
2022-12-03T20:04:18.380Z,99261.54
2022-12-03T20:06:47.867Z,99257.54
2022-12-03T20:09:18.221Z,99259.29
2022-12-03T20:11:50.687Z,99252.38
2022-12-03T20:14:20.201Z,99259.10
2022-12-03T20:16:49.668Z,99252.15
2022-12-03T20:19:18.529Z,99251.57
2022-12-03T20:21:47.564Z,99252.54
2022-12-03T20:24:18.317Z,99251.92
2022-12-03T20:26:47.515Z,99251.11
2022-12-03T20:29:16.145Z,99250.08
2022-12-03T20:31:44.928Z,99242.02
2022-12-03T20:34:14.141Z,99243.64
2022-12-03T20:36:44.539Z,99240.26
2022-12-03T20:39:13.421Z,99245.27
2022-12-03T20:41:42.152Z,99245.10
2022-12-03T20:44:10.788Z,99248.52
2022-12-03T20:46:39.752Z,99249.51
2022-12-03T20:49:08.785Z,99248.68
2022-12-03T20:51:37.342Z,99244.59
2022-12-03T20:54:06.108Z,99241.06
2022-12-03T20:56:39.823Z,99237.84
2022-12-03T20:59:12.854Z,99240.44
2022-12-03T21:01:43.035Z,99241.66
2022-12-03T21:04:18.413Z,99241.94
2022-12-03T21:06:47.245Z,99239.04
2022-12-03T21:09:16.561Z,99246.98
2022-12-03T21:11:45.437Z,99243.95
2022-12-03T21:14:14.364Z,99242.86
2022-12-03T21:17:07.270Z,99245.64
2022-12-03T21:19:36.056Z,99248.15
2022-12-03T21:22:06.128Z,99246.90
2022-12-03T21:24:34.957Z,99245.83
2022-12-03T21:27:04.488Z,99243.58
2022-12-03T21:29:34.686Z,99242.56
2022-12-03T21:32:03.261Z,99238.10
2022-12-03T21:34:36.116Z,99245.08
2022-12-03T21:37:05.930Z,99245.48
2022-12-03T21:39:34.688Z,99244.70
2022-12-03T21:42:18.714Z,99245.36
2022-12-03T21:44:53.135Z,99243.78
2022-12-03T21:47:22.347Z,99238.80
2022-12-03T21:49:50.988Z,99237.97
2022-12-03T21:52:20.283Z,99238.90
2022-12-03T21:54:51.984Z,99238.41
2022-12-03T21:57:21.855Z,99231.13
2022-12-03T21:59:50.453Z,99229.66
2022-12-03T22:02:19.154Z,99230.20
2022-12-03T22:04:52.028Z,99228.79
2022-12-03T22:07:20.576Z,99227.02
2022-12-03T22:09:49.329Z,99226.89
2022-12-03T22:12:20.333Z,99231.80
2022-12-03T22:14:48.881Z,99229.29
2022-12-03T22:17:17.853Z,99228.11
2022-12-03T22:19:46.567Z,99225.11
2022-12-03T22:22:15.196Z,99225.92
2022-12-03T22:24:46.240Z,99225.58
2022-12-03T22:27:15.632Z,99223.46
2022-12-03T22:29:44.224Z,99226.39
2022-12-03T22:32:13.170Z,99223.06
2022-12-03T22:34:43.132Z,99220.25
2022-12-03T22:37:11.543Z,99215.23
2022-12-03T22:39:40.208Z,99210.59
2022-12-03T22:42:09.090Z,99213.96
2022-12-03T22:44:37.711Z,99213.36
2022-12-03T22:47:06.827Z,99219.41
2022-12-03T22:49:35.591Z,99218.19
2022-12-03T22:52:04.241Z,99216.36
2022-12-03T22:54:33.268Z,99207.92
2022-12-03T22:57:02.316Z,99201.61
2022-12-03T22:59:31.062Z,99200.67
2022-12-03T23:02:00.259Z,99198.52
2022-12-03T23:04:29.254Z,99198.64
2022-12-03T23:06:57.802Z,99193.58
2022-12-03T23:09:27.057Z,99196.84
2022-12-03T23:11:56.202Z,99201.73
2022-12-03T23:14:24.739Z,99203.44
2022-12-03T23:16:54.036Z,99202.70
2022-12-03T23:19:23.367Z,99195.64
2022-12-03T23:21:51.875Z,99197.21
2022-12-03T23:24:21.037Z,99194.67
2022-12-03T23:26:50.094Z,99192.20
2022-12-03T23:29:18.682Z,99183.95
2022-12-03T23:31:48.239Z,99185.54
2022-12-03T23:34:17.275Z,99182.86
2022-12-03T23:36:45.918Z,99183.96
2022-12-03T23:39:15.969Z,99181.48
2022-12-03T23:41:45.053Z,99179.70
2022-12-03T23:44:13.544Z,99175.30
2022-12-03T23:46:43.018Z,99173.30
2022-12-03T23:49:12.473Z,99170.92
2022-12-03T23:51:41.018Z,99162.39
2022-12-03T23:54:09.906Z,99156.89
2022-12-03T23:56:40.303Z,99161.81
2022-12-03T23:59:09.937Z,99162.45
